Time;durP1;ratioP1;P1;durP2;ratioP2;P2;SDS_P1;SDS_P2;PMS_P1;PMS_P2;Temp;Humidity;BMP_temperature;BMP_pressure;BME280_temperature;BME280_humidity;BME280_pressure;Samples;Min_cycle;Max_cycle;Signal;HPM_P1;HPM_P2
2021/05/27 00:01:07;;;;;;;3.47;1.08;;;14.20;53.90;;;;;;5020648;28;20037;-67
2021/05/27 00:03:34;;;;;;;6.55;1.48;;;14.30;52.40;;;;;;5023900;28;20188;-66
2021/05/27 00:06:01;;;;;;;6.13;1.13;;;14.50;53.30;;;;;;5023734;28;20540;-63
2021/05/27 00:08:28;;;;;;;3.55;1.15;;;14.50;52.60;;;;;;5023344;28;20337;-68
2021/05/27 00:10:55;;;;;;;5.95;1.25;;;14.60;52.80;;;;;;5024335;28;20127;-69
2021/05/27 00:13:22;;;;;;;5.75;1.15;;;14.60;51.50;;;;;;5024060;28;20021;-69
2021/05/27 00:15:49;;;;;;;5.10;1.20;;;14.60;52.30;;;;;;5024080;28;20022;-66
2021/05/27 00:18:16;;;;;;;4.60;1.30;;;14.70;52.50;;;;;;5022711;28;20476;-72
2021/05/27 00:20:43;;;;;;;3.28;0.90;;;14.80;51.10;;;;;;5018206;28;20551;-74
2021/05/27 00:23:10;;;;;;;6.05;1.13;;;15.00;50.80;;;;;;5024055;28;20037;-69
2021/05/27 00:25:36;;;;;;;8.63;1.02;;;14.90;50.70;;;;;;5022086;28;20410;-67
2021/05/27 00:28:04;;;;;;;2.03;1.00;;;15.00;51.30;;;;;;5021654;28;20056;-74
2021/05/27 00:30:31;;;;;;;2.78;0.98;;;15.10;52.30;;;;;;5022443;28;20021;-68
2021/05/27 00:32:58;;;;;;;3.08;1.27;;;15.20;51.20;;;;;;5022617;28;20020;-66
2021/05/27 00:35:25;;;;;;;1.95;0.98;;;15.40;49.90;;;;;;5024595;28;20457;-65
2021/05/27 00:37:52;;;;;;;6.50;1.55;;;15.40;49.50;;;;;;5026954;28;20025;-65
2021/05/27 00:40:19;;;;;;;16.13;3.42;;;15.30;49.40;;;;;;5026019;28;20112;-67
2021/05/27 00:42:47;;;;;;;5.72;1.15;;;15.40;50.60;;;;;;5027470;28;20359;-68
2021/05/27 00:45:16;;;;;;;6.72;2.47;;;15.50;49.40;;;;;;5026833;28;20104;-69
2021/05/27 00:47:44;;;;;;;9.52;4.63;;;15.70;50.10;;;;;;5025952;28;20485;-67
2021/05/27 00:50:21;;;;;;;3.83;1.30;;;15.90;50.00;;;;;;5026810;28;20029;-69
2021/05/27 00:52:58;;;;;;;7.32;1.85;;;16.00;49.70;;;;;;5024119;28;20025;-73
2021/05/27 00:55:29;;;;;;;2.63;1.23;;;15.90;48.90;;;;;;5026915;28;20491;-69
2021/05/27 00:57:56;;;;;;;4.00;1.08;;;16.00;49.10;;;;;;5026975;28;20071;-74
2021/05/27 01:00:25;;;;;;;2.33;0.95;;;16.10;49.10;;;;;;5025764;28;20053;-65
2021/05/27 01:02:53;;;;;;;10.20;2.40;;;16.10;48.50;;;;;;5027143;28;20421;-68
2021/05/27 01:05:20;;;;;;;5.40;1.02;;;16.40;49.60;;;;;;5064963;23;20551;-74
2021/05/27 01:07:48;;;;;;;3.20;1.25;;;16.60;48.40;;;;;;5026519;28;20026;-69
2021/05/27 01:10:15;;;;;;;4.05;1.00;;;16.60;48.40;;;;;;5026534;28;20068;-70
2021/05/27 01:12:42;;;;;;;2.42;0.82;;;16.60;47.80;;;;;;5027442;28;20379;-67
2021/05/27 01:18:02;;;;;;;5.63;1.10;;;17.10;47.60;;;;;;5026022;28;20044;-67
2021/05/27 01:20:31;;;;;;;2.13;1.13;;;17.20;46.00;;;;;;5025286;28;20029;-74
2021/05/27 01:22:58;;;;;;;2.00;0.90;;;17.20;45.80;;;;;;5021698;28;20021;-68
2021/05/27 01:25:25;;;;;;;8.68;3.55;;;17.10;44.90;;;;;;5026506;28;20021;-68
2021/05/27 01:27:52;;;;;;;8.07;1.73;;;17.10;47.00;;;;;;5026429;28;20026;-66
2021/05/27 01:30:20;;;;;;;2.83;1.42;;;17.20;47.10;;;;;;5025644;28;20029;-69
2021/05/27 01:32:47;;;;;;;2.47;1.20;;;17.40;46.00;;;;;;5027209;28;20068;-65
2021/05/27 01:35:16;;;;;;;1.60;0.73;;;17.40;45.70;;;;;;5028666;28;20100;-71
2021/05/27 01:37:45;;;;;;;3.78;0.93;;;17.40;46.20;;;;;;5028738;28;20013;-70
2021/05/27 01:40:30;;;;;;;2.28;0.90;;;17.40;45.70;;;;;;5028177;28;21308;-69
2021/05/27 01:42:57;;;;;;;3.35;1.15;;;17.60;45.40;;;;;;5024242;28;20390;-69
2021/05/27 01:45:24;;;;;;;3.58;1.30;;;17.40;44.70;;;;;;5028718;28;20032;-72
2021/05/27 01:47:55;;;;;;;2.58;1.35;;;17.40;44.50;;;;;;5027537;28;20021;-71
2021/05/27 01:50:22;;;;;;;2.63;1.00;;;17.50;45.00;;;;;;5026420;28;20032;-67
2021/05/27 01:52:50;;;;;;;6.20;0.80;;;17.60;44.40;;;;;;5028118;28;20026;-65
2021/05/27 01:55:17;;;;;;;3.15;0.60;;;17.60;43.70;;;;;;5027731;28;20017;-71
2021/05/27 01:57:44;;;;;;;3.08;1.05;;;17.70;43.00;;;;;;5028169;28;20196;-67
2021/05/27 02:00:12;;;;;;;5.43;1.20;;;17.70;44.00;;;;;;5026932;28;20021;-63
2021/05/27 02:02:39;;;;;;;3.40;0.90;;;17.60;44.00;;;;;;5026647;28;20114;-68
2021/05/27 02:05:06;;;;;;;3.65;0.95;;;17.60;44.00;;;;;;5027826;28;20076;-66
2021/05/27 02:07:33;;;;;;;4.18;0.85;;;17.70;44.00;;;;;;5027574;28;20037;-65
2021/05/27 02:10:00;;;;;;;5.30;1.00;;;17.80;43.20;;;;;;5026558;28;20038;-63
2021/05/27 02:12:28;;;;;;;2.42;0.95;;;18.00;43.70;;;;;;5026531;28;20068;-65
2021/05/27 02:14:55;;;;;;;2.35;0.95;;;18.00;43.60;;;;;;5026676;28;20021;-65
2021/05/27 02:17:22;;;;;;;3.88;1.38;;;18.10;42.80;;;;;;5026591;28;20157;-69
2021/05/27 02:19:49;;;;;;;5.13;1.45;;;18.10;43.80;;;;;;5025970;28;20120;-72
2021/05/27 02:22:16;;;;;;;4.95;1.25;;;18.20;43.90;;;;;;5027128;28;20030;-66
2021/05/27 02:24:43;;;;;;;8.43;4.00;;;18.40;43.70;;;;;;5027317;28;20036;-67
2021/05/27 02:27:10;;;;;;;4.90;1.40;;;18.50;43.50;;;;;;5027440;28;20037;-67
2021/05/27 02:29:37;;;;;;;6.88;1.45;;;18.60;43.30;;;;;;5027315;28;20461;-66
2021/05/27 02:32:04;;;;;;;3.28;0.88;;;18.70;43.70;;;;;;5027344;28;20462;-71
2021/05/27 02:34:31;;;;;;;3.05;0.82;;;18.70;42.50;;;;;;5026816;28;20129;-71
2021/05/27 02:36:58;;;;;;;3.80;0.77;;;18.60;43.60;;;;;;5025544;28;20021;-67
2021/05/27 02:39:25;;;;;;;4.82;0.90;;;18.70;42.50;;;;;;5027187;28;20030;-67
2021/05/27 02:41:52;;;;;;;5.28;0.75;;;18.70;41.80;;;;;;5027296;28;20778;-64
2021/05/27 02:44:19;;;;;;;3.90;1.10;;;18.60;42.10;;;;;;5024841;28;20025;-71
2021/05/27 02:46:46;;;;;;;5.95;0.98;;;18.60;44.90;;;;;;5028275;28;20140;-70
2021/05/27 02:49:13;;;;;;;4.35;1.10;;;18.70;42.50;;;;;;5025672;28;20041;-68
2021/05/27 02:51:40;;;;;;;5.13;1.10;;;18.80;43.00;;;;;;5027761;28;20025;-64
2021/05/27 02:54:07;;;;;;;4.78;2.63;;;18.70;43.10;;;;;;5028240;28;20022;-64
2021/05/27 02:56:34;;;;;;;7.25;3.53;;;18.70;44.40;;;;;;5027851;28;20026;-62
2021/05/27 02:59:01;;;;;;;3.88;1.02;;;18.90;44.50;;;;;;5026695;28;20088;-64
2021/05/27 03:01:28;;;;;;;4.45;1.05;;;18.90;42.20;;;;;;5027282;28;20087;-71
2021/05/27 03:03:55;;;;;;;1.48;0.80;;;19.00;43.70;;;;;;5029594;28;20061;-64
2021/05/27 03:06:22;;;;;;;7.53;1.50;;;18.90;43.50;;;;;;5029929;28;20045;-71
2021/05/27 03:08:49;;;;;;;7.50;1.25;;;18.80;44.10;;;;;;5030087;28;20033;-64
2021/05/27 03:11:16;;;;;;;2.42;0.70;;;18.90;44.30;;;;;;5028104;28;20084;-69
2021/05/27 03:13:43;;;;;;;2.85;0.95;;;18.70;43.10;;;;;;5026878;28;20346;-67
2021/05/27 03:16:10;;;;;;;5.15;0.95;;;18.50;43.50;;;;;;5031424;28;20024;-70
2021/05/27 03:18:37;;;;;;;2.50;1.13;;;18.50;43.10;;;;;;5031150;28;20080;-70
2021/05/27 03:21:05;;;;;;;5.65;1.50;;;18.60;43.60;;;;;;5031498;28;20030;-70
2021/05/27 03:23:32;;;;;;;3.90;1.00;;;18.60;43.00;;;;;;5031058;28;20036;-70
2021/05/27 03:25:59;;;;;;;3.90;0.68;;;18.70;42.70;;;;;;5029257;28;20057;-71
2021/05/27 03:28:26;;;;;;;9.20;1.42;;;18.70;43.10;;;;;;5030671;28;20061;-67
2021/05/27 03:30:53;;;;;;;4.43;1.00;;;18.80;43.30;;;;;;5031735;28;20022;-66
2021/05/27 03:33:21;;;;;;;3.35;0.70;;;18.90;43.30;;;;;;5032986;28;20044;-69
2021/05/27 03:35:47;;;;;;;3.97;1.08;;;19.00;42.00;;;;;;5031804;28;20022;-65
2021/05/27 03:38:14;;;;;;;3.58;0.73;;;18.90;42.40;;;;;;5031679;28;20026;-68
2021/05/27 03:40:41;;;;;;;4.45;0.88;;;18.80;43.40;;;;;;5031437;28;20045;-65
2021/05/27 03:43:09;;;;;;;4.35;1.00;;;19.00;42.70;;;;;;5031474;28;20034;-68
2021/05/27 03:45:36;;;;;;;4.82;1.23;;;18.90;43.20;;;;;;5030496;28;20433;-67
2021/05/27 03:48:04;;;;;;;4.18;0.90;;;19.10;43.70;;;;;;5031576;28;20053;-64
2021/05/27 03:50:31;;;;;;;4.93;0.70;;;19.00;42.30;;;;;;5029916;28;20032;-65
2021/05/27 03:53:00;;;;;;;7.88;1.00;;;18.80;43.20;;;;;;5032071;28;20060;-67
2021/05/27 03:55:28;;;;;;;3.13;0.82;;;18.80;43.10;;;;;;5034753;28;20457;-68
2021/05/27 03:57:57;;;;;;;5.25;1.05;;;18.80;43.40;;;;;;5031818;28;20069;-68
2021/05/27 04:03:12;;;;;;;7.57;1.20;;;18.90;43.80;;;;;;5029728;28;20031;-64
2021/05/27 04:08:25;;;;;;;6.63;0.90;;;18.90;42.80;;;;;;5029547;28;20083;-67
2021/05/27 04:10:52;;;;;;;2.53;1.20;;;18.80;43.50;;;;;;5030458;28;20021;-67
2021/05/27 04:13:19;;;;;;;5.68;1.00;;;19.00;43.90;;;;;;5031412;28;20022;-67
2021/05/27 04:15:47;;;;;;;6.35;1.27;;;19.20;43.30;;;;;;5030862;28;20056;-65
2021/05/27 04:18:17;;;;;;;3.63;1.33;;;19.30;43.70;;;;;;5031318;28;20351;-66
2021/05/27 04:20:52;;;;;;;2.72;1.15;;;19.30;43.40;;;;;;5030411;28;20026;-68
2021/05/27 04:23:36;;;;;;;6.07;1.38;;;19.40;42.60;;;;;;5028397;28;20017;-66
2021/05/27 04:26:11;;;;;;;4.85;0.85;;;19.00;42.20;;;;;;5029485;28;20025;-71
2021/05/27 04:28:40;;;;;;;6.78;1.02;;;19.00;43.40;;;;;;5030618;28;20036;-68
2021/05/27 04:31:10;;;;;;;3.33;1.00;;;19.00;43.30;;;;;;5029385;28;20029;-68
2021/05/27 04:33:53;;;;;;;5.00;0.85;;;18.90;43.80;;;;;;5030725;28;20022;-67
2021/05/27 04:36:21;;;;;;;7.20;1.58;;;18.90;43.40;;;;;;5028084;28;20100;-67
2021/05/27 04:38:50;;;;;;;7.47;2.35;;;18.90;43.80;;;;;;5030511;28;20057;-68
2021/05/27 04:41:18;;;;;;;5.55;0.98;;;18.80;44.10;;;;;;5029274;28;20048;-68
2021/05/27 04:43:53;;;;;;;7.05;0.90;;;18.70;43.80;;;;;;5030974;28;20390;-66
2021/05/27 04:46:25;;;;;;;6.45;1.02;;;18.70;44.40;;;;;;5030787;28;20053;-66
2021/05/27 04:48:52;;;;;;;1.63;0.60;;;18.90;45.10;;;;;;5030372;28;20021;-68
2021/05/27 04:51:19;;;;;;;2.38;0.80;;;19.00;43.30;;;;;;5030246;28;20309;-67
2021/05/27 04:53:46;;;;;;;4.10;0.90;;;19.00;43.40;;;;;;5030350;28;20017;-67
2021/05/27 04:56:14;;;;;;;1.83;0.70;;;19.00;43.30;;;;;;5029887;28;20024;-66
2021/05/27 04:58:41;;;;;;;3.60;1.05;;;19.00;42.80;;;;;;5028866;28;20458;-70
2021/05/27 05:01:08;;;;;;;2.50;0.70;;;18.90;43.30;;;;;;5030329;28;20401;-70
2021/05/27 05:03:35;;;;;;;4.65;0.80;;;18.90;44.20;;;;;;5030379;28;20018;-69
2021/05/27 05:06:02;;;;;;;4.22;0.93;;;18.80;44.60;;;;;;5028692;28;20099;-69
2021/05/27 05:08:29;;;;;;;1.55;0.57;;;18.90;43.30;;;;;;5030315;28;20075;-67
2021/05/27 05:10:56;;;;;;;1.98;0.75;;;19.10;43.80;;;;;;5030632;28;20029;-67
2021/05/27 05:13:23;;;;;;;2.60;0.80;;;19.20;43.30;;;;;;5037063;28;20098;-66
2021/05/27 05:15:50;;;;;;;4.50;0.80;;;19.10;43.80;;;;;;5031915;28;20025;-68
2021/05/27 05:18:17;;;;;;;2.63;0.50;;;19.10;43.80;;;;;;5031261;28;20029;-66
2021/05/27 05:20:52;;;;;;;3.55;0.80;;;19.10;43.20;;;;;;5029437;28;20030;-65
2021/05/27 05:23:19;;;;;;;7.10;1.00;;;19.10;43.30;;;;;;5030917;28;20021;-70
2021/05/27 05:25:47;;;;;;;2.28;0.77;;;19.00;44.00;;;;;;5033363;28;20287;-72
2021/05/27 05:28:14;;;;;;;7.85;1.40;;;19.20;43.10;;;;;;5034205;28;20431;-65
2021/05/27 05:30:42;;;;;;;3.72;0.90;;;19.00;43.40;;;;;;5032944;28;20017;-68
2021/05/27 05:33:10;;;;;;;4.10;1.02;;;19.00;43.70;;;;;;5033883;28;20075;-70
2021/05/27 05:35:37;;;;;;;6.82;1.05;;;19.30;44.00;;;;;;5033445;28;20068;-68
2021/05/27 05:38:05;;;;;;;10.07;1.67;;;19.60;43.10;;;;;;5034827;28;20048;-70
2021/05/27 05:40:33;;;;;;;6.07;1.15;;;19.50;42.90;;;;;;5033512;28;20051;-66
2021/05/27 05:43:00;;;;;;;3.55;0.98;;;19.50;43.20;;;;;;5032516;28;20112;-64
2021/05/27 05:45:28;;;;;;;6.45;1.17;;;19.50;42.50;;;;;;5033692;28;20018;-70
2021/05/27 05:47:55;;;;;;;7.43;1.30;;;19.30;43.30;;;;;;5033577;28;20096;-65
2021/05/27 05:53:10;;;;;;;8.63;1.40;;;18.40;44.10;;;;;;5031804;28;20072;-70
2021/05/27 05:55:38;;;;;;;11.07;1.95;;;18.00;44.30;;;;;;5035754;28;20018;-66
2021/05/27 05:58:06;;;;;;;7.15;1.35;;;17.80;45.40;;;;;;5032696;28;20018;-65
2021/05/27 06:00:34;;;;;;;7.15;1.83;;;17.70;45.70;;;;;;5031619;28;20033;-69
2021/05/27 06:03:01;;;;;;;6.15;2.08;;;17.50;46.40;;;;;;5032778;28;20033;-65
2021/05/27 06:05:28;;;;;;;5.40;0.95;;;17.40;45.50;;;;;;5033124;28;20064;-68
2021/05/27 06:07:56;;;;;;;2.22;0.82;;;17.30;45.70;;;;;;5032537;28;20053;-66
2021/05/27 06:10:26;;;;;;;3.15;0.93;;;17.30;45.60;;;;;;5033005;28;20045;-68
2021/05/27 06:12:58;;;;;;;4.78;1.00;;;17.20;46.10;;;;;;5032897;28;20022;-66
2021/05/27 06:15:26;;;;;;;5.03;1.00;;;17.20;46.40;;;;;;5031112;28;20014;-66
2021/05/27 06:17:54;;;;;;;5.00;0.98;;;17.20;46.80;;;;;;5033103;28;20038;-67
2021/05/27 06:20:22;;;;;;;5.25;1.38;;;17.10;47.10;;;;;;5032772;28;20083;-64
2021/05/27 06:22:51;;;;;;;3.72;1.10;;;17.20;46.80;;;;;;5030944;28;20044;-63
2021/05/27 06:25:19;;;;;;;4.07;1.00;;;17.20;47.00;;;;;;5031261;28;20057;-63
2021/05/27 06:27:46;;;;;;;4.30;1.25;;;17.10;47.60;;;;;;5032300;28;20021;-71
2021/05/27 06:30:14;;;;;;;6.38;1.05;;;17.20;47.60;;;;;;5032571;28;20029;-63
2021/05/27 06:32:42;;;;;;;3.95;0.73;;;17.40;47.50;;;;;;5029525;28;20077;-64
2021/05/27 06:35:12;;;;;;;2.47;1.00;;;17.50;46.10;;;;;;5031330;28;20029;-66
2021/05/27 06:37:41;;;;;;;3.15;1.15;;;17.60;46.40;;;;;;5031788;28;20049;-64
2021/05/27 06:40:14;;;;;;;4.70;0.85;;;17.60;46.60;;;;;;5028050;28;20068;-70
2021/05/27 06:42:43;;;;;;;2.85;0.73;;;17.20;47.50;;;;;;5030424;28;20033;-67
2021/05/27 06:45:11;;;;;;;3.80;1.30;;;16.90;47.90;;;;;;5026856;28;20068;-69
2021/05/27 06:47:38;;;;;;;4.65;1.30;;;16.60;49.10;;;;;;5028611;28;20021;-65
2021/05/27 06:50:07;;;;;;;2.75;1.17;;;16.10;50.40;;;;;;5028337;28;20052;-71
2021/05/27 06:52:36;;;;;;;2.90;1.00;;;15.80;50.80;;;;;;5025720;28;20168;-68
2021/05/27 06:55:05;;;;;;;5.53;1.45;;;15.60;52.10;;;;;;5026330;28;20025;-63
2021/05/27 06:57:34;;;;;;;3.38;0.90;;;15.50;52.60;;;;;;5024861;28;20033;-66
2021/05/27 07:00:01;;;;;;;8.48;1.67;;;15.20;53.30;;;;;;5024221;28;20052;-70
2021/05/27 07:02:29;;;;;;;6.07;1.33;;;15.10;54.00;;;;;;5024882;28;20040;-69
2021/05/27 07:04:58;;;;;;;5.25;1.17;;;14.90;54.60;;;;;;5024523;28;20041;-69
2021/05/27 07:07:24;;;;;;;4.10;1.85;;;14.70;55.40;;;;;;5024356;28;20052;-64
2021/05/27 07:09:51;;;;;;;4.43;1.35;;;14.50;56.10;;;;;;5024369;28;20049;-65
2021/05/27 07:12:18;;;;;;;8.27;1.63;;;14.30;57.00;;;;;;5024459;28;20029;-69
2021/05/27 07:14:45;;;;;;;4.22;1.45;;;14.10;57.60;;;;;;5027973;28;20143;-65
2021/05/27 07:17:14;;;;;;;6.60;1.40;;;14.00;57.30;;;;;;5024691;28;20458;-65
2021/05/27 07:19:41;;;;;;;8.45;2.10;;;14.10;57.60;;;;;;5024304;28;20025;-69
2021/05/27 07:22:08;;;;;;;9.80;4.55;;;14.00;58.10;;;;;;5023508;28;20059;-72
2021/05/27 07:24:35;;;;;;;6.63;1.38;;;14.00;58.50;;;;;;5021035;28;20044;-63
2021/05/27 07:27:02;;;;;;;6.72;1.55;;;14.00;56.30;;;;;;5021467;28;20025;-68
2021/05/27 07:29:29;;;;;;;3.92;1.17;;;14.20;56.40;;;;;;5019509;28;20037;-63
2021/05/27 07:31:56;;;;;;;4.63;1.25;;;14.20;55.90;;;;;;5019397;28;20071;-68
2021/05/27 07:34:23;;;;;;;7.32;1.50;;;14.20;55.30;;;;;;5019876;28;20026;-65
2021/05/27 07:36:50;;;;;;;10.88;2.00;;;14.30;54.80;;;;;;5020942;28;20052;-67
2021/05/27 07:39:17;;;;;;;10.43;1.65;;;14.40;54.50;;;;;;5019299;28;20087;-68
2021/05/27 07:41:47;;;;;;;8.73;1.85;;;14.30;55.10;;;;;;5021886;28;20480;-64
2021/05/27 07:44:14;;;;;;;3.45;1.23;;;14.20;55.40;;;;;;5021975;28;20082;-69
2021/05/27 07:46:42;;;;;;;6.95;1.30;;;14.10;55.80;;;;;;5023554;28;20029;-69
2021/05/27 07:49:09;;;;;;;2.25;1.17;;;13.80;57.40;;;;;;5024235;28;20057;-70
2021/05/27 07:51:36;;;;;;;5.45;1.77;;;13.60;58.20;;;;;;5022824;28;20018;-64
2021/05/27 07:54:03;;;;;;;7.65;1.33;;;13.40;59.00;;;;;;5024712;28;20079;-69
2021/05/27 07:56:30;;;;;;;9.65;1.13;;;13.50;57.50;;;;;;5023040;28;20026;-70
2021/05/27 07:58:57;;;;;;;3.95;1.30;;;13.60;57.60;;;;;;5024010;28;20027;-69
2021/05/27 08:01:25;;;;;;;5.18;1.70;;;13.60;57.60;;;;;;5020954;28;20718;-69
2021/05/27 08:03:51;;;;;;;7.82;1.40;;;13.40;58.20;;;;;;5022924;28;20028;-70
2021/05/27 08:06:20;;;;;;;5.38;1.15;;;13.30;58.40;;;;;;5023172;28;20049;-70
2021/05/27 08:08:47;;;;;;;4.13;1.35;;;13.20;59.30;;;;;;5020054;28;20760;-73
2021/05/27 08:11:14;;;;;;;5.55;1.30;;;13.00;59.70;;;;;;5021794;28;20026;-63
2021/05/27 08:13:41;;;;;;;4.82;1.90;;;12.80;61.50;;;;;;5020962;28;20026;-64
2021/05/27 08:16:08;;;;;;;5.80;2.33;;;12.70;61.40;;;;;;5021038;28;20026;-66
2021/05/27 08:18:35;;;;;;;2.35;0.80;;;12.70;61.40;;;;;;5020831;28;20116;-64
2021/05/27 08:21:02;;;;;;;2.80;0.68;;;12.70;60.50;;;;;;5022278;28;20026;-61
2021/05/27 08:23:29;;;;;;;4.43;1.00;;;12.90;59.70;;;;;;5021682;28;20349;-62
2021/05/27 08:25:56;;;;;;;4.20;1.00;;;13.00;59.70;;;;;;5023115;28;20075;-66
2021/05/27 08:28:23;;;;;;;4.43;1.40;;;12.90;59.90;;;;;;5022329;28;20037;-61
2021/05/27 08:30:50;;;;;;;5.90;1.33;;;12.90;60.30;;;;;;5023053;28;20029;-65
2021/05/27 08:33:18;;;;;;;7.95;1.05;;;12.80;60.90;;;;;;5021785;28;20173;-65
2021/05/27 08:35:45;;;;;;;5.03;1.63;;;12.80;60.30;;;;;;5020171;28;20025;-68
2021/05/27 08:38:12;;;;;;;2.65;0.98;;;12.90;60.60;;;;;;5021323;28;20560;-69
2021/05/27 08:40:42;;;;;;;4.25;1.02;;;13.10;59.50;;;;;;5021378;28;20029;-72
2021/05/27 08:43:12;;;;;;;5.80;1.15;;;13.20;59.30;;;;;;5016961;28;20546;-68
2021/05/27 08:45:42;;;;;;;8.88;2.03;;;13.30;58.70;;;;;;5004156;28;20025;-72
2021/05/27 08:48:18;;;;;;;4.97;1.20;;;13.40;58.10;;;;;;5021877;28;20025;-68
2021/05/27 08:50:47;;;;;;;7.43;1.20;;;13.50;58.00;;;;;;5021933;28;20852;-72
2021/05/27 08:53:20;;;;;;;3.15;1.77;;;13.50;57.40;;;;;;5019806;28;20017;-68
2021/05/27 08:55:49;;;;;;;3.83;1.75;;;13.50;57.80;;;;;;5020541;28;20025;-70
2021/05/27 08:58:21;;;;;;;6.55;1.63;;;13.50;57.60;;;;;;5009852;28;20034;-68
2021/05/27 09:00:49;;;;;;;3.58;1.75;;;13.50;57.70;;;;;;5024575;28;20772;-65
2021/05/27 09:03:18;;;;;;;4.78;1.00;;;13.50;57.80;;;;;;5027346;28;20028;-67
2021/05/27 09:05:46;;;;;;;2.72;1.40;;;13.40;58.40;;;;;;5022311;28;20053;-63
2021/05/27 09:08:34;;;;;;;6.50;1.90;;;13.30;58.60;;;;;;5024054;28;20092;-64
2021/05/27 09:11:13;;;;;;;3.60;1.17;;;13.30;58.60;;;;;;5026318;28;20025;-68
2021/05/27 09:14:01;;;;;;;2.40;0.85;;;13.20;59.10;;;;;;5024301;28;20033;-69
2021/05/27 09:16:29;;;;;;;4.78;1.10;;;13.10;59.40;;;;;;5025544;28;20128;-68
2021/05/27 09:19:04;;;;;;;8.27;1.25;;;13.20;58.80;;;;;;5024980;28;20033;-66
2021/05/27 09:21:38;;;;;;;8.23;1.65;;;13.20;58.80;;;;;;5024200;28;20660;-69
2021/05/27 09:24:06;;;;;;;9.20;1.67;;;13.30;58.90;;;;;;5024090;28;20030;-68
2021/05/27 09:26:34;;;;;;;4.63;1.75;;;13.30;58.90;;;;;;5028926;28;20511;-65
2021/05/27 09:29:13;;;;;;;5.05;1.83;;;13.10;59.30;;;;;;5025622;28;20033;-69
2021/05/27 09:32:05;;;;;;;5.95;1.75;;;13.10;59.50;;;;;;5024808;28;20093;-65
2021/05/27 09:34:54;;;;;;;7.13;2.60;;;13.10;59.40;;;;;;5022954;28;20022;-67
2021/05/27 09:37:30;;;;;;;7.50;2.20;;;13.20;59.50;;;;;;5025079;28;20052;-67
2021/05/27 09:39:59;;;;;;;7.28;2.40;;;13.10;59.70;;;;;;5025454;28;20061;-66
2021/05/27 09:42:27;;;;;;;5.78;2.22;;;13.10;59.60;;;;;;5022267;28;20022;-69
2021/05/27 09:44:54;;;;;;;6.97;1.85;;;13.00;60.10;;;;;;5023220;28;20079;-68
2021/05/27 09:47:39;;;;;;;7.20;3.78;;;12.90;60.50;;;;;;5026471;28;20029;-69
2021/05/27 09:50:07;;;;;;;8.52;4.35;;;12.80;61.30;;;;;;5024415;28;20103;-67
2021/05/27 09:52:48;;;;;;;11.43;3.08;;;12.80;61.00;;;;;;5024712;28;20354;-70
2021/05/27 09:55:17;;;;;;;9.45;2.15;;;12.80;61.20;;;;;;5024623;28;20021;-68
2021/05/27 09:57:46;;;;;;;5.20;1.90;;;12.70;61.50;;;;;;5025420;28;20037;-66
2021/05/27 10:00:22;;;;;;;9.38;2.17;;;12.70;61.70;;;;;;5026652;28;20102;-68
2021/05/27 10:02:50;;;;;;;10.73;2.00;;;12.70;61.70;;;;;;5022664;28;20022;-68
2021/05/27 10:05:18;;;;;;;11.23;1.80;;;12.60;61.50;;;;;;5024389;28;20572;-69
2021/05/27 10:07:56;;;;;;;6.97;1.95;;;12.60;61.50;;;;;;5026264;28;20567;-70
2021/05/27 10:10:24;;;;;;;9.70;1.98;;;12.60;62.00;;;;;;5024231;28;20029;-69
2021/05/27 10:12:54;;;;;;;6.22;2.17;;;12.40;62.30;;;;;;5024866;28;20099;-72
2021/05/27 10:15:25;;;;;;;4.68;1.65;;;12.30;62.00;;;;;;5022798;28;20025;-70
2021/05/27 10:17:56;;;;;;;4.20;1.15;;;12.30;62.40;;;;;;5025126;28;20433;-69
2021/05/27 10:20:27;;;;;;;5.00;1.30;;;12.20;62.30;;;;;;5021956;28;20025;-67
2021/05/27 10:22:56;;;;;;;6.10;1.40;;;12.10;63.10;;;;;;5024755;28;20049;-69
2021/05/27 10:25:25;;;;;;;5.13;0.93;;;12.10;63.10;;;;;;5022304;28;20032;-66
2021/05/27 10:27:55;;;;;;;5.95;1.10;;;12.00;64.20;;;;;;5024856;28;20076;-68
2021/05/27 10:30:23;;;;;;;1.48;0.85;;;11.90;64.10;;;;;;5025329;28;20464;-70
2021/05/27 10:32:58;;;;;;;4.47;1.17;;;11.80;64.10;;;;;;5024548;28;20033;-69
2021/05/27 10:36:04;;;;;;;1.77;0.98;;;11.90;63.80;;;;;;5026353;28;20135;-69
2021/05/27 10:38:43;;;;;;;3.67;0.90;;;12.00;63.30;;;;;;5025595;28;20519;-68
2021/05/27 10:41:21;;;;;;;5.22;0.85;;;12.00;62.80;;;;;;4675676;28;10000475;-70
2021/05/27 10:44:04;;;;;;;1.40;0.60;;;12.10;63.00;;;;;;5019540;28;20592;-69
2021/05/27 10:46:31;;;;;;;3.17;1.17;;;12.00;62.70;;;;;;5021942;28;20033;-71
2021/05/27 10:48:58;;;;;;;3.15;0.80;;;12.10;62.80;;;;;;5021804;28;20025;-70
2021/05/27 10:51:42;;;;;;;4.45;0.90;;;12.10;63.20;;;;;;5023085;28;20086;-67
2021/05/27 10:54:27;;;;;;;6.78;1.20;;;12.10;62.50;;;;;;5022333;28;20036;-70
2021/05/27 10:56:54;;;;;;;6.47;1.65;;;12.20;62.20;;;;;;5022107;28;20079;-71
2021/05/27 10:59:31;;;;;;;2.60;1.25;;;12.20;62.10;;;;;;5021989;28;20030;-66
2021/05/27 11:02:00;;;;;;;9.60;1.40;;;12.10;62.40;;;;;;5018769;28;20128;-68
2021/05/27 11:04:29;;;;;;;9.82;1.48;;;12.00;63.00;;;;;;5018691;28;20025;-69
2021/05/27 11:07:24;;;;;;;7.80;2.08;;;12.00;63.20;;;;;;5020396;28;20037;-68
2021/05/27 11:09:53;;;;;;;9.75;1.92;;;11.90;63.60;;;;;;5013998;28;20048;-70
2021/05/27 11:12:23;;;;;;;5.30;1.10;;;11.80;64.10;;;;;;5020290;28;20112;-71
2021/05/27 11:15:10;;;;;;;7.15;1.27;;;11.80;64.50;;;;;;5020866;28;20078;-67
2021/05/27 11:17:37;;;;;;;2.63;0.90;;;11.70;65.00;;;;;;5019843;28;20480;-70
2021/05/27 11:20:26;;;;;;;6.40;1.80;;;11.60;64.80;;;;;;5018734;28;20119;-67
2021/05/27 11:25:29;;;;;;;4.45;1.20;;;11.60;65.10;;;;;;5023809;28;20034;-69
2021/05/27 11:27:56;;;;;;;5.45;1.10;;;11.60;65.30;;;;;;5022505;28;20474;-69
2021/05/27 11:30:44;;;;;;;4.43;1.20;;;11.40;65.80;;;;;;5021310;28;20226;-72
2021/05/27 11:33:29;;;;;;;4.25;1.58;;;11.20;67.10;;;;;;5022679;28;20045;-69
2021/05/27 11:36:03;;;;;;;5.60;1.38;;;11.10;67.50;;;;;;5024512;28;20025;-70
2021/05/27 11:38:32;;;;;;;5.82;1.30;;;10.90;68.40;;;;;;5022082;28;20025;-74
2021/05/27 11:41:08;;;;;;;6.05;1.00;;;10.70;69.50;;;;;;5022662;28;20385;-70
2021/05/27 11:43:38;;;;;;;6.25;1.40;;;10.70;69.20;;;;;;5020342;28;20120;-72
2021/05/27 11:46:12;;;;;;;4.35;1.00;;;10.70;69.10;;;;;;5022178;28;20029;-73
2021/05/27 11:48:43;;;;;;;3.63;1.17;;;10.90;68.50;;;;;;5021521;28;20041;-67
2021/05/27 11:51:19;;;;;;;5.25;1.20;;;11.00;68.50;;;;;;5023660;28;20022;-69
2021/05/27 11:53:58;;;;;;;3.05;1.00;;;11.10;67.90;;;;;;5023340;28;20478;-69
2021/05/27 11:56:38;;;;;;;7.60;1.13;;;11.00;68.00;;;;;;5018686;28;20025;-70
2021/05/27 11:59:18;;;;;;;4.43;1.52;;;11.10;67.80;;;;;;5022700;28;20068;-70
2021/05/27 12:02:00;;;;;;;4.03;1.00;;;11.10;68.20;;;;;;5023137;28;20039;-69
2021/05/27 12:04:28;;;;;;;2.35;1.00;;;11.10;68.50;;;;;;5017268;28;20147;-70
2021/05/27 12:07:07;;;;;;;3.33;1.08;;;11.00;68.50;;;;;;5022770;28;20645;-68
2021/05/27 12:09:35;;;;;;;2.63;0.75;;;11.00;69.10;;;;;;5023030;28;20112;-69
2021/05/27 12:12:24;;;;;;;4.70;1.08;;;10.90;68.90;;;;;;5023463;28;20056;-72
2021/05/27 12:14:55;;;;;;;2.72;0.80;;;11.00;68.90;;;;;;5022779;28;20116;-70
2021/05/27 12:17:29;;;;;;;4.10;0.88;;;11.10;68.80;;;;;;5025308;28;20123;-69
2021/05/27 12:20:04;;;;;;;7.25;1.13;;;11.10;68.90;;;;;;5022613;28;20029;-70
2021/05/27 12:22:55;;;;;;;6.68;1.17;;;11.10;68.30;;;;;;5024254;28;20041;-70
2021/05/27 12:25:27;;;;;;;3.58;1.33;;;11.10;68.60;;;;;;5023573;28;20425;-71
2021/05/27 12:28:00;;;;;;;3.53;1.00;;;11.30;68.10;;;;;;5016043;28;20406;-72
2021/05/27 12:30:29;;;;;;;2.92;1.13;;;11.30;67.60;;;;;;5022094;28;20087;-68
2021/05/27 12:32:57;;;;;;;5.82;0.98;;;11.30;67.70;;;;;;5025997;28;20083;-72
2021/05/27 12:35:29;;;;;;;1.58;1.15;;;11.30;68.20;;;;;;5029740;28;20428;-70
2021/05/27 12:37:59;;;;;;;4.80;0.98;;;11.20;68.50;;;;;;5023673;28;20044;-71
2021/05/27 12:40:33;;;;;;;6.78;1.10;;;11.20;68.70;;;;;;5030022;28;20025;-67
2021/05/27 12:43:39;;;;;;;4.00;0.88;;;11.20;69.00;;;;;;5029854;28;20131;-71
2021/05/27 12:46:09;;;;;;;4.57;0.95;;;11.50;67.60;;;;;;5022329;28;20460;-68
2021/05/27 12:48:55;;;;;;;1.63;0.75;;;11.60;67.80;;;;;;5032843;28;20119;-70
2021/05/27 12:51:28;;;;;;;3.03;0.77;;;11.50;67.80;;;;;;5028620;28;20067;-69
2021/05/27 12:53:58;;;;;;;6.05;0.90;;;11.60;67.10;;;;;;5030273;28;20359;-72
2021/05/27 12:56:30;;;;;;;5.80;1.10;;;11.80;66.80;;;;;;5028432;28;20026;-68
2021/05/27 12:59:04;;;;;;;4.82;1.20;;;11.80;66.80;;;;;;5028315;28;20033;-68
2021/05/27 13:01:42;;;;;;;3.03;0.82;;;11.70;67.00;;;;;;5031754;28;20045;-69
2021/05/27 13:04:19;;;;;;;1.63;0.88;;;12.00;66.20;;;;;;4838749;23;10003562;-67
2021/05/27 13:06:45;;;;;;;;;;;12.10;65.50;;;;;;5026545;28;20246;-69
2021/05/27 13:09:18;;;;;;;5.22;0.75;;;12.20;65.50;;;;;;5030352;28;19971;-69
2021/05/27 13:11:58;;;;;;;4.32;1.45;;;12.20;65.30;;;;;;5032191;28;20071;-69
2021/05/27 13:14:26;;;;;;;3.30;1.20;;;12.20;65.40;;;;;;5030469;28;20029;-72